Time;durP1;ratioP1;P1;durP2;ratioP2;P2;SDS_P1;SDS_P2;PMS_P1;PMS_P2;Temp;Humidity;BMP_temperature;BMP_pressure;BME280_temperature;BME280_humidity;BME280_pressure;Samples;Min_cycle;Max_cycle;Signal;HPM_P1;HPM_P2
2021/11/25 00:00:52;;;;;;;21.45;11.10;;;;;12.40;101255.00;;;;5092409;28;20200;-80
2021/11/25 00:03:20;;;;;;;21.45;11.05;;;;;12.40;101241.00;;;;5092334;28;20205;-80
2021/11/25 00:05:48;;;;;;;23.00;11.20;;;;;12.40;101243.00;;;;5092204;28;20206;-80
2021/11/25 00:08:15;;;;;;;22.58;11.57;;;;;12.40;101241.00;;;;5093025;28;20193;-80
2021/11/25 00:10:43;;;;;;;20.65;11.05;;;;;12.40;101238.00;;;;5094693;28;20198;-80
2021/11/25 00:16:34;;;;;;;19.63;9.90;;;;;12.30;101219.00;;;;5093506;28;20217;-80
2021/11/25 00:19:01;;;;;;;22.75;12.40;;;;;12.30;101217.00;;;;5091480;28;20229;-80
2021/11/25 00:21:28;;;;;;;20.77;10.98;;;;;12.30;101215.00;;;;5096569;28;20280;-80
2021/11/25 00:23:56;;;;;;;21.60;11.68;;;;;12.30;101220.00;;;;5102718;28;20194;-80
2021/11/25 00:26:23;;;;;;;21.45;11.10;;;;;12.30;101215.00;;;;5091591;28;20198;-80
2021/11/25 00:28:50;;;;;;;22.33;12.27;;;;;12.30;101211.00;;;;5091443;28;20202;-80
2021/11/25 00:31:17;;;;;;;19.98;10.88;;;;;12.40;101222.00;;;;5090520;28;20195;-80
2021/11/25 00:33:46;;;;;;;18.42;10.75;;;;;12.30;101213.00;;;;5091291;28;20194;-80
2021/11/25 00:36:13;;;;;;;22.70;10.75;;;;;12.40;101212.00;;;;5099336;28;20237;-80
2021/11/25 00:38:40;;;;;;;20.40;10.70;;;;;12.40;101214.00;;;;5105931;28;20225;-80
2021/11/25 00:41:08;;;;;;;23.10;11.93;;;;;12.40;101213.00;;;;5091000;28;20186;-80
2021/11/25 00:43:35;;;;;;;16.85;9.75;;;;;12.40;101202.00;;;;5095521;28;20193;-80
2021/11/25 00:46:03;;;;;;;19.90;10.65;;;;;12.40;101203.00;;;;5098946;28;20206;-80
2021/11/25 00:48:30;;;;;;;19.75;10.52;;;;;12.40;101201.00;;;;5091221;28;20205;-80
2021/11/25 00:50:59;;;;;;;20.83;10.27;;;;;12.40;101204.00;;;;5090792;28;20202;-80
2021/11/25 00:53:26;;;;;;;19.70;11.18;;;;;12.40;101203.00;;;;5089953;28;20210;-80
2021/11/25 00:55:54;;;;;;;19.27;10.38;;;;;12.40;101202.00;;;;5092753;28;20202;-80
2021/11/25 00:58:21;;;;;;;21.00;9.73;;;;;12.40;101200.00;;;;5091166;28;20229;-80
2021/11/25 01:00:49;;;;;;;19.45;10.20;;;;;12.40;101198.00;;;;5101292;28;20202;-80
2021/11/25 01:03:16;;;;;;;21.90;10.68;;;;;12.40;101192.00;;;;5109872;28;20710;-80
2021/11/25 01:05:44;;;;;;;19.08;9.90;;;;;12.40;101200.00;;;;5093280;28;20570;-80
2021/11/25 01:08:12;;;;;;;19.08;9.85;;;;;12.40;101193.00;;;;5091453;28;20327;-79
2021/11/25 01:10:40;;;;;;;21.65;11.45;;;;;12.40;101197.00;;;;5104706;28;20210;-80
2021/11/25 01:13:08;;;;;;;19.70;10.60;;;;;12.40;101196.00;;;;5095085;28;20202;-80
2021/11/25 01:15:36;;;;;;;17.38;9.68;;;;;12.40;101194.00;;;;5102088;28;20199;-79
2021/11/25 01:18:06;;;;;;;17.88;10.40;;;;;12.40;101195.00;;;;5090972;28;20217;-79
2021/11/25 01:20:35;;;;;;;20.75;10.35;;;;;12.40;101189.00;;;;5092458;28;20194;-80
2021/11/25 01:23:04;;;;;;;20.33;11.15;;;;;12.40;101195.00;;;;5090804;28;20217;-80
2021/11/25 01:25:33;;;;;;;22.27;11.40;;;;;12.40;101191.00;;;;5092643;28;20190;-80
2021/11/25 01:28:00;;;;;;;18.52;10.38;;;;;12.40;101186.00;;;;5090052;28;20202;-80
2021/11/25 01:30:28;;;;;;;19.70;10.60;;;;;12.40;101195.00;;;;5094056;28;20626;-79
2021/11/25 01:32:56;;;;;;;18.45;10.48;;;;;12.40;101195.00;;;;5091059;28;20217;-80
2021/11/25 01:35:24;;;;;;;18.20;10.35;;;;;12.40;101204.00;;;;5089941;28;20586;-80
2021/11/25 01:37:51;;;;;;;20.33;10.48;;;;;12.50;101199.00;;;;5091018;28;20218;-79
2021/11/25 01:40:19;;;;;;;20.63;10.75;;;;;12.40;101186.00;;;;5101718;28;20206;-80
2021/11/25 01:42:47;;;;;;;20.90;11.23;;;;;12.40;101189.00;;;;5102367;28;20194;-79
2021/11/25 01:45:16;;;;;;;18.08;10.95;;;;;12.40;101186.00;;;;5102144;28;20193;-80
2021/11/25 01:47:44;;;;;;;18.65;10.00;;;;;12.50;101187.00;;;;5091026;28;20635;-80
2021/11/25 01:50:13;;;;;;;18.30;9.50;;;;;12.50;101188.00;;;;5091780;28;20198;-80
2021/11/25 01:52:41;;;;;;;18.27;10.57;;;;;12.50;101178.00;;;;5092535;28;20233;-80
2021/11/25 01:55:08;;;;;;;20.25;11.18;;;;;12.50;101177.00;;;;5095390;28;20199;-80
2021/11/25 01:57:36;;;;;;;18.73;9.60;;;;;12.50;101174.00;;;;5089533;28;20863;-80
2021/11/25 02:00:06;;;;;;;15.50;9.68;;;;;12.50;101169.00;;;;5092271;28;20228;-81
2021/11/25 02:02:34;;;;;;;19.92;10.70;;;;;12.50;101168.00;;;;5103373;28;20219;-80
2021/11/25 02:05:01;;;;;;;22.50;10.85;;;;;12.50;101167.00;;;;5093610;28;20202;-80
2021/11/25 02:07:28;;;;;;;19.92;10.90;;;;;12.50;101164.00;;;;5088798;28;20190;-80
2021/11/25 02:09:55;;;;;;;21.05;11.40;;;;;12.50;101157.00;;;;5093310;28;20197;-80
2021/11/25 02:12:23;;;;;;;23.48;11.88;;;;;12.50;101154.00;;;;5108530;28;20234;-80
2021/11/25 02:14:50;;;;;;;22.13;12.93;;;;;12.50;101159.00;;;;5098899;28;20201;-80
2021/11/25 02:17:19;;;;;;;21.63;11.43;;;;;12.50;101146.00;;;;5094184;28;20195;-80
2021/11/25 02:19:49;;;;;;;18.83;10.68;;;;;12.50;101144.00;;;;5089230;28;20660;-80
2021/11/25 02:22:18;;;;;;;19.90;10.48;;;;;12.50;101137.00;;;;5096527;28;20198;-80
2021/11/25 02:24:46;;;;;;;20.55;11.10;;;;;12.50;101135.00;;;;5107132;28;20220;-80
2021/11/25 02:27:13;;;;;;;18.63;10.70;;;;;12.50;101127.00;;;;5107626;28;20197;-80
2021/11/25 02:29:41;;;;;;;19.50;11.20;;;;;12.50;101121.00;;;;5097879;28;20222;-80
2021/11/25 02:32:09;;;;;;;18.70;11.07;;;;;12.50;101127.00;;;;5097688;28;20201;-79
2021/11/25 02:34:36;;;;;;;21.30;12.05;;;;;12.50;101131.00;;;;5089828;28;20202;-80
2021/11/25 02:37:04;;;;;;;17.90;9.98;;;;;12.50;101116.00;;;;5089260;28;20201;-80
2021/11/25 02:39:33;;;;;;;19.75;10.57;;;;;12.50;101107.00;;;;5092213;28;20221;-80
2021/11/25 02:42:01;;;;;;;20.25;11.13;;;;;12.50;101119.00;;;;5093531;28;20186;-80
2021/11/25 02:44:28;;;;;;;20.50;12.25;;;;;12.50;101120.00;;;;5102671;28;20248;-80
2021/11/25 02:47:00;;;;;;;20.70;11.30;;;;;12.50;101118.00;;;;5088575;28;20197;-80
2021/11/25 02:49:27;;;;;;;23.67;12.23;;;;;12.50;101118.00;;;;5088641;28;20291;-80
2021/11/25 02:51:54;;;;;;;20.55;11.85;;;;;12.50;101120.00;;;;5101981;28;20226;-80
2021/11/25 02:54:21;;;;;;;20.30;10.80;;;;;12.50;101111.00;;;;5095540;28;20201;-80
2021/11/25 02:56:50;;;;;;;23.90;12.18;;;;;12.50;101110.00;;;;5090082;28;20201;-80
2021/11/25 02:59:18;;;;;;;18.38;10.95;;;;;12.50;101117.00;;;;5090143;28;20210;-80
2021/11/25 03:01:45;;;;;;;23.08;12.73;;;;;12.60;101107.00;;;;5099182;28;20193;-80
2021/11/25 03:04:12;;;;;;;23.67;12.43;;;;;12.60;101106.00;;;;5087880;28;20194;-80
2021/11/25 03:06:39;;;;;;;20.80;11.68;;;;;12.60;101102.00;;;;5088114;28;20213;-80
2021/11/25 03:09:08;;;;;;;22.55;12.25;;;;;12.50;101096.00;;;;5106690;28;20647;-80
2021/11/25 03:11:37;;;;;;;20.08;12.18;;;;;12.60;101094.00;;;;5088127;28;20186;-80
2021/11/25 03:14:08;;;;;;;25.02;12.48;;;;;12.50;101089.00;;;;5088576;28;20201;-80
2021/11/25 03:16:36;;;;;;;23.27;12.50;;;;;12.60;101094.00;;;;5088066;28;20191;-80
2021/11/25 03:19:04;;;;;;;21.40;12.43;;;;;12.60;101096.00;;;;5091153;28;20225;-80
2021/11/25 03:21:32;;;;;;;22.23;12.52;;;;;12.60;101094.00;;;;5106736;28;20190;-80
2021/11/25 03:23:59;;;;;;;23.02;12.27;;;;;12.60;101087.00;;;;5101747;28;20210;-80
2021/11/25 03:26:27;;;;;;;20.40;11.18;;;;;12.60;101086.00;;;;5088103;28;20186;-80
2021/11/25 03:28:56;;;;;;;19.08;10.90;;;;;12.60;101084.00;;;;5089423;28;20193;-80
2021/11/25 03:31:27;;;;;;;24.92;11.93;;;;;12.60;101083.00;;;;5087886;28;20197;-80
2021/11/25 03:33:56;;;;;;;21.38;12.00;;;;;12.60;101089.00;;;;5088118;28;20202;-80
2021/11/25 03:36:24;;;;;;;20.33;11.43;;;;;12.60;101073.00;;;;5098387;28;20254;-80
2021/11/25 03:38:52;;;;;;;23.92;12.40;;;;;12.60;101080.00;;;;5098735;28;20758;-80
2021/11/25 03:41:20;;;;;;;20.88;11.90;;;;;12.60;101074.00;;;;5095778;28;20272;-80
2021/11/25 03:43:47;;;;;;;22.50;13.13;;;;;12.60;101070.00;;;;5092450;28;20571;-80
2021/11/25 03:46:15;;;;;;;19.23;11.60;;;;;12.60;101074.00;;;;5106131;28;20194;-80
2021/11/25 03:48:44;;;;;;;23.10;12.50;;;;;12.60;101081.00;;;;5107612;28;20201;-80
2021/11/25 03:51:13;;;;;;;24.90;13.57;;;;;12.60;101079.00;;;;5088825;28;20217;-80
2021/11/25 03:53:43;;;;;;;21.88;12.48;;;;;12.60;101087.00;;;;5088130;28;20210;-80
2021/11/25 03:56:11;;;;;;;23.67;12.85;;;;;12.60;101074.00;;;;5094146;28;20187;-80
2021/11/25 03:58:38;;;;;;;25.27;13.68;;;;;12.60;101072.00;;;;5089238;28;20242;-80
2021/11/25 04:01:06;;;;;;;22.20;12.98;;;;;12.60;101069.00;;;;5101360;28;20216;-80
2021/11/25 04:03:34;;;;;;;21.80;13.00;;;;;12.60;101060.00;;;;5096268;28;20190;-80
2021/11/25 04:06:03;;;;;;;23.88;13.50;;;;;12.60;101055.00;;;;5106486;28;20186;-80
2021/11/25 04:08:30;;;;;;;25.17;12.88;;;;;12.60;101063.00;;;;5096391;28;20255;-80
2021/11/25 04:10:57;;;;;;;22.40;13.30;;;;;12.60;101060.00;;;;5087605;28;20190;-81
2021/11/25 04:13:25;;;;;;;23.42;13.70;;;;;12.60;101065.00;;;;5088296;28;20202;-80
2021/11/25 04:15:52;;;;;;;23.95;12.13;;;;;12.60;101054.00;;;;5098875;28;20209;-79
2021/11/25 04:18:19;;;;;;;19.13;11.60;;;;;12.60;101053.00;;;;5087407;28;20218;-80
2021/11/25 04:20:47;;;;;;;21.63;12.40;;;;;12.60;101047.00;;;;5098955;28;20209;-80
2021/11/25 04:23:15;;;;;;;21.48;12.65;;;;;12.60;101048.00;;;;5107225;28;20189;-78
2021/11/25 04:25:43;;;;;;;25.00;13.70;;;;;12.60;101050.00;;;;5095913;28;20193;-78
2021/11/25 04:28:10;;;;;;;21.83;12.93;;;;;12.70;101046.00;;;;5110480;28;20213;-78
2021/11/25 04:30:53;;;;;;;21.92;12.55;;;;;12.70;101046.00;;;;5109538;28;20714;-78
2021/11/25 04:36:19;;;;;;;18.42;11.52;;;;;12.70;101050.00;;;;5028893;28;20725;-78
2021/11/25 04:38:48;;;;;;;19.70;11.65;;;;;12.60;101053.00;;;;5035338;28;20216;-79
2021/11/25 04:41:15;;;;;;;23.35;11.73;;;;;12.70;101040.00;;;;5059977;28;20199;-79
2021/11/25 04:43:43;;;;;;;22.60;12.48;;;;;12.70;101051.00;;;;5091906;28;20189;-79
2021/11/25 04:46:10;;;;;;;22.23;12.60;;;;;12.70;101050.00;;;;5091314;28;20265;-79
2021/11/25 04:48:38;;;;;;;19.55;12.10;;;;;12.70;101044.00;;;;5092029;28;20209;-78
2021/11/25 04:51:05;;;;;;;22.98;11.68;;;;;12.70;101046.00;;;;5091434;28;20201;-78
2021/11/25 04:53:32;;;;;;;26.60;14.05;;;;;12.70;101045.00;;;;5096775;28;20926;-78
2021/11/25 04:56:01;;;;;;;23.48;13.13;;;;;12.70;101042.00;;;;5094057;28;20194;-78
2021/11/25 04:58:28;;;;;;;22.38;13.40;;;;;12.70;101039.00;;;;5093877;28;20599;-78
2021/11/25 05:00:56;;;;;;;21.33;13.38;;;;;12.70;101039.00;;;;5109826;28;20197;-78
2021/11/25 05:03:23;;;;;;;20.58;12.77;;;;;12.70;101024.00;;;;5091852;28;20935;-77
2021/11/25 05:05:50;;;;;;;23.08;13.23;;;;;12.70;101029.00;;;;5099606;28;20198;-78
2021/11/25 05:08:17;;;;;;;19.45;12.38;;;;;12.70;101017.00;;;;5090529;28;20190;-78
2021/11/25 05:10:45;;;;;;;21.75;13.05;;;;;12.70;101013.00;;;;5094033;28;20204;-78
2021/11/25 05:13:13;;;;;;;20.90;12.90;;;;;12.70;101005.00;;;;5105869;28;20198;-78
2021/11/25 05:15:41;;;;;;;22.02;13.48;;;;;12.70;101012.00;;;;5099985;28;20190;-79
2021/11/25 05:18:09;;;;;;;20.83;13.02;;;;;12.70;101003.00;;;;5094752;28;20208;-79
2021/11/25 05:20:37;;;;;;;20.52;12.80;;;;;12.70;101013.00;;;;5091009;28;20344;-78
2021/11/25 05:23:04;;;;;;;20.85;12.63;;;;;12.70;101005.00;;;;5095491;28;20212;-78
2021/11/25 05:25:32;;;;;;;21.95;13.27;;;;;12.70;101000.00;;;;5096126;28;20817;-79
2021/11/25 05:27:59;;;;;;;22.60;13.50;;;;;12.60;101011.00;;;;5106724;28;20190;-79
2021/11/25 05:30:32;;;;;;;20.58;11.73;;;;;12.60;101014.00;;;;5094661;28;20228;-79
2021/11/25 05:33:00;;;;;;;20.70;12.43;;;;;12.60;101018.00;;;;5090122;28;20220;-79
2021/11/25 05:35:28;;;;;;;20.90;12.15;;;;;12.60;101026.00;;;;5101200;28;20198;-78
2021/11/25 05:37:55;;;;;;;21.20;13.13;;;;;12.60;101017.00;;;;5089504;28;20217;-79
2021/11/25 05:40:23;;;;;;;21.40;12.82;;;;;12.60;101018.00;;;;5099517;28;20225;-79
2021/11/25 05:42:50;;;;;;;19.63;12.23;;;;;12.60;101015.00;;;;5098598;28;20194;-79
2021/11/25 05:45:20;;;;;;;22.42;11.85;;;;;12.60;101009.00;;;;5105725;28;20186;-78
2021/11/25 05:47:49;;;;;;;18.40;11.43;;;;;12.60;101013.00;;;;5089288;28;20198;-79
2021/11/25 05:50:19;;;;;;;22.50;13.40;;;;;12.60;101006.00;;;;5089716;28;20209;-78
2021/11/25 05:52:46;;;;;;;18.40;11.52;;;;;12.60;101010.00;;;;5096500;28;20237;-79
2021/11/25 05:55:14;;;;;;;19.65;12.20;;;;;12.60;100999.00;;;;5092170;28;20677;-79
2021/11/25 05:57:41;;;;;;;21.60;14.27;;;;;12.60;101005.00;;;;5092605;28;20190;-79
2021/11/25 06:00:11;;;;;;;19.67;11.52;;;;;12.50;100998.00;;;;5092370;28;20241;-79
2021/11/25 06:02:39;;;;;;;33.60;13.43;;;;;12.50;100994.00;;;;5098926;28;20205;-79
2021/11/25 06:05:09;;;;;;;22.88;13.35;;;;;12.50;100986.00;;;;5102449;28;20198;-79
2021/11/25 06:07:37;;;;;;;19.50;12.20;;;;;12.50;100979.00;;;;5109359;28;20192;-79
2021/11/25 06:10:05;;;;;;;20.73;13.32;;;;;12.50;100980.00;;;;5089943;28;20202;-79
2021/11/25 06:12:32;;;;;;;20.55;12.48;;;;;12.50;100982.00;;;;5092325;28;20201;-79
2021/11/25 06:14:59;;;;;;;20.50;12.93;;;;;12.50;100986.00;;;;5094501;28;20203;-79
2021/11/25 06:17:26;;;;;;;20.67;13.63;;;;;12.50;100985.00;;;;5096081;28;21900;-78
2021/11/25 06:19:55;;;;;;;24.70;14.93;;;;;12.50;100983.00;;;;5095427;28;20229;-79
2021/11/25 06:22:24;;;;;;;18.38;11.85;;;;;12.50;100984.00;;;;5098858;28;20194;-79
2021/11/25 06:24:52;;;;;;;20.15;12.82;;;;;12.50;100986.00;;;;5093739;28;20206;-79
2021/11/25 06:27:20;;;;;;;19.77;12.60;;;;;12.50;100985.00;;;;5088590;28;20190;-79
2021/11/25 06:29:47;;;;;;;21.90;13.30;;;;;12.50;100982.00;;;;5088939;28;20214;-79
2021/11/25 06:32:16;;;;;;;20.08;12.65;;;;;12.50;100985.00;;;;5089755;28;20287;-79
2021/11/25 06:34:43;;;;;;;20.92;12.40;;;;;12.50;100981.00;;;;5101927;28;20221;-79
2021/11/25 06:37:10;;;;;;;20.08;12.98;;;;;12.40;100976.00;;;;5097363;28;20570;-78
2021/11/25 06:39:39;;;;;;;17.15;11.73;;;;;12.40;100985.00;;;;5104294;28;20213;-79
2021/11/25 06:42:06;;;;;;;16.95;11.25;;;;;12.40;100985.00;;;;5088700;28;20198;-78
2021/11/25 06:44:34;;;;;;;22.23;13.30;;;;;12.40;100986.00;;;;5104029;28;20735;-77
2021/11/25 06:47:01;;;;;;;18.52;11.13;;;;;12.40;100989.00;;;;5096634;28;20217;-77
2021/11/25 06:49:28;;;;;;;18.73;11.80;;;;;12.40;100983.00;;;;5097447;28;20197;-78
2021/11/25 06:51:55;;;;;;;17.25;11.73;;;;;12.40;100983.00;;;;5093092;28;20587;-77
2021/11/25 06:54:23;;;;;;;19.60;12.85;;;;;12.40;100983.00;;;;5102047;28;20191;-76
2021/11/25 06:56:51;;;;;;;18.15;11.38;;;;;12.30;100973.00;;;;5095023;28;20273;-77
2021/11/25 06:59:18;;;;;;;19.58;11.93;;;;;12.40;100975.00;;;;5095573;28;20228;-78
2021/11/25 07:01:46;;;;;;;20.65;12.27;;;;;12.40;100984.00;;;;5089141;28;20201;-78
2021/11/25 07:04:14;;;;;;;19.58;12.05;;;;;12.40;100979.00;;;;5096986;28;20312;-78
2021/11/25 07:06:44;;;;;;;19.25;11.65;;;;;12.40;100980.00;;;;5091880;28;20308;-77
2021/11/25 07:09:11;;;;;;;17.63;11.48;;;;;12.40;100972.00;;;;5088807;28;20692;-77
2021/11/25 07:11:38;;;;;;;21.05;12.23;;;;;12.40;100976.00;;;;5088409;28;20202;-77
2021/11/25 07:14:08;;;;;;;18.13;11.82;;;;;12.40;100969.00;;;;5089575;28;20203;-77
2021/11/25 07:16:35;;;;;;;18.67;12.18;;;;;12.40;100966.00;;;;5088348;28;20190;-77
2021/11/25 07:19:03;;;;;;;20.10;11.68;;;;;12.50;100968.00;;;;5088957;28;20197;-78
2021/11/25 07:21:30;;;;;;;17.30;11.18;;;;;12.50;100964.00;;;;5088949;28;21084;-77
2021/11/25 07:23:57;;;;;;;16.50;11.65;;;;;12.50;100972.00;;;;5088739;28;20216;-77
2021/11/25 07:26:25;;;;;;;18.60;11.68;;;;;12.50;100975.00;;;;5088721;28;20202;-77
2021/11/25 07:28:55;;;;;;;19.15;11.90;;;;;12.50;100970.00;;;;5094141;28;20193;-77
2021/11/25 07:31:25;;;;;;;18.85;11.68;;;;;12.60;100981.00;;;;5094234;28;20289;-77
2021/11/25 07:33:53;;;;;;;18.90;11.57;;;;;12.60;100980.00;;;;5089164;28;20201;-78
2021/11/25 07:36:20;;;;;;;19.63;11.73;;;;;12.60;100984.00;;;;5094822;28;20727;-77
2021/11/25 07:38:48;;;;;;;18.63;12.02;;;;;12.60;100984.00;;;;5096621;28;20200;-77
2021/11/25 07:41:15;;;;;;;19.27;12.10;;;;;12.60;100982.00;;;;5108987;28;20232;-77
2021/11/25 07:43:42;;;;;;;20.92;11.55;;;;;12.60;100989.00;;;;5107791;28;20193;-78
2021/11/25 07:46:10;;;;;;;19.88;11.65;;;;;12.70;100981.00;;;;5089830;28;20209;-77
2021/11/25 07:48:39;;;;;;;19.17;11.63;;;;;12.70;100978.00;;;;5091402;28;20194;-78
2021/11/25 07:51:06;;;;;;;19.30;11.38;;;;;12.70;100974.00;;;;5095859;28;20200;-77
2021/11/25 07:53:35;;;;;;;22.67;12.15;;;;;12.70;100975.00;;;;5093017;28;20197;-78
2021/11/25 07:56:02;;;;;;;16.98;11.30;;;;;12.70;100975.00;;;;5095933;28;20228;-78
2021/11/25 07:58:29;;;;;;;18.80;12.13;;;;;12.70;100970.00;;;;5112567;28;20659;-78
2021/11/25 08:00:57;;;;;;;17.88;11.80;;;;;12.70;100963.00;;;;5103526;28;20696;-78
2021/11/25 08:03:24;;;;;;;19.33;12.00;;;;;12.70;100966.00;;;;5093193;28;20198;-78
2021/11/25 08:05:53;;;;;;;19.17;11.60;;;;;12.70;100962.00;;;;5099585;28;20197;-77
2021/11/25 08:08:21;;;;;;;17.45;11.13;;;;;12.70;100961.00;;;;5107869;28;20727;-78
2021/11/25 08:10:48;;;;;;;19.05;11.82;;;;;12.80;100957.00;;;;5100487;28;20197;-79
2021/11/25 08:13:16;;;;;;;20.55;11.48;;;;;12.80;100970.00;;;;5100325;28;20205;-78
2021/11/25 08:15:43;;;;;;;18.92;11.50;;;;;12.80;100970.00;;;;5093100;28;20202;-78
2021/11/25 08:18:10;;;;;;;20.90;13.00;;;;;12.80;100968.00;;;;5101778;28;20194;-80
2021/11/25 08:20:38;;;;;;;19.27;11.70;;;;;12.80;100974.00;;;;5102976;28;20220;-78
2021/11/25 08:23:06;;;;;;;19.23;10.73;;;;;12.80;100975.00;;;;5099740;28;20195;-78
2021/11/25 08:25:33;;;;;;;17.52;11.73;;;;;12.90;100975.00;;;;5098525;28;20202;-78
2021/11/25 08:28:01;;;;;;;17.23;11.63;;;;;12.90;100981.00;;;;5092624;28;20205;-78
2021/11/25 08:30:30;;;;;;;22.08;12.57;;;;;12.90;100978.00;;;;5100784;28;20210;-78
2021/11/25 08:32:58;;;;;;;22.05;12.68;;;;;12.90;100982.00;;;;5093922;28;20579;-78
2021/11/25 08:35:26;;;;;;;22.00;12.52;;;;;12.90;100984.00;;;;5096504;28;20205;-78
2021/11/25 08:37:53;;;;;;;16.70;10.48;;;;;13.00;100985.00;;;;5102455;28;20341;-78
2021/11/25 08:40:23;;;;;;;19.17;11.82;;;;;13.00;100985.00;;;;5103352;28;20217;-77
2021/11/25 08:42:51;;;;;;;18.83;11.15;;;;;13.00;100979.00;;;;5110416;28;20202;-77
2021/11/25 08:45:19;;;;;;;22.05;12.60;;;;;13.00;100982.00;;;;5103385;28;20198;-77
2021/11/25 08:47:46;;;;;;;20.23;12.38;;;;;13.00;100978.00;;;;5095729;28;20206;-77
2021/11/25 08:50:14;;;;;;;17.63;11.05;;;;;13.00;100979.00;;;;5107856;28;20189;-77
2021/11/25 08:52:41;;;;;;;23.40;12.50;;;;;13.00;100981.00;;;;5096416;28;20234;-77
2021/11/25 08:55:09;;;;;;;20.35;12.38;;;;;13.10;100976.00;;;;5092963;28;20198;-77
2021/11/25 08:57:39;;;;;;;17.77;11.35;;;;;13.10;100974.00;;;;5105837;28;20202;-77
2021/11/25 09:00:09;;;;;;;18.48;11.55;;;;;13.10;100985.00;;;;5109798;28;20610;-77
2021/11/25 09:02:37;;;;;;;20.38;11.50;;;;;13.10;100991.00;;;;5092185;28;20198;-77
2021/11/25 09:05:05;;;;;;;24.15;13.38;;;;;13.10;100998.00;;;;5101016;28;20204;-77
2021/11/25 09:07:33;;;;;;;19.85;11.10;;;;;13.10;100999.00;;;;5103364;28;20190;-76
2021/11/25 09:10:00;;;;;;;19.20;12.15;;;;;13.10;100990.00;;;;5100916;28;20204;-77
2021/11/25 09:12:27;;;;;;;18.58;11.38;;;;;13.10;100992.00;;;;5100947;28;20200;-77
2021/11/25 09:14:56;;;;;;;22.35;12.73;;;;;13.10;100987.00;;;;5100557;28;21017;-79
2021/11/25 09:17:23;;;;;;;21.38;12.90;;;;;13.10;100983.00;;;;5102794;28;20201;-77
2021/11/25 09:19:50;;;;;;;22.25;12.57;;;;;13.10;100973.00;;;;5095953;28;20225;-78
2021/11/25 09:22:18;;;;;;;24.27;12.80;;;;;13.20;100976.00;;;;5091179;28;20195;-77
2021/11/25 09:24:45;;;;;;;20.13;12.15;;;;;13.20;100975.00;;;;5098187;28;20209;-78
2021/11/25 09:27:13;;;;;;;22.30;12.45;;;;;13.20;100964.00;;;;5098217;28;20205;-79
2021/11/25 09:29:40;;;;;;;20.95;12.15;;;;;13.20;100976.00;;;;5089182;28;20339;-79
2021/11/25 09:32:09;;;;;;;21.10;13.18;;;;;13.20;100977.00;;;;5089504;28;20190;-79
2021/11/25 09:34:36;;;;;;;24.33;12.45;;;;;13.30;100980.00;;;;5092668;28;20579;-79
2021/11/25 09:37:03;;;;;;;20.45;13.02;;;;;13.30;100985.00;;;;5103814;28;20202;-79
2021/11/25 09:39:30;;;;;;;21.60;12.90;;;;;13.30;100987.00;;;;5090168;28;20565;-78
2021/11/25 09:41:58;;;;;;;21.60;13.13;;;;;13.30;100987.00;;;;5088915;28;20604;-78
2021/11/25 09:44:26;;;;;;;22.17;11.90;;;;;13.40;100985.00;;;;5089874;28;20687;-79
2021/11/25 09:46:56;;;;;;;21.25;12.38;;;;;13.40;100992.00;;;;5099543;28;20193;-79
2021/11/25 09:49:27;;;;;;;20.80;10.95;;;;;13.40;100995.00;;;;5088860;28;20206;-79
2021/11/25 09:51:55;;;;;;;19.48;11.98;;;;;13.40;101001.00;;;;5101453;28;20234;-79
2021/11/25 09:54:23;;;;;;;23.48;13.40;;;;;13.40;101006.00;;;;5089699;28;20194;-79
2021/11/25 09:56:52;;;;;;;22.00;12.20;;;;;13.50;101007.00;;;;5096140;28;20198;-79
2021/11/25 09:59:19;;;;;;;20.15;12.02;;;;;13.50;101001.00;;;;5096055;28;20191;-79
2021/11/25 10:01:47;;;;;;;20.80;12.15;;;;;13.50;101002.00;;;;5094448;28;20236;-79
2021/11/25 10:04:14;;;;;;;22.80;12.85;;;;;13.50;101012.00;;;;5096042;28;20194;-79
2021/11/25 10:06:54;;;;;;;19.55;12.35;;;;;13.50;101010.00;;;;5105629;28;20197;-79
2021/11/25 10:09:35;;;;;;;18.20;10.98;;;;;13.50;100999.00;;;;5098391;28;20196;-80
2021/11/25 10:12:22;;;;;;;19.60;11.80;;;;;13.60;101000.00;;;;5098630;28;20197;-79
2021/11/25 10:14:51;;;;;;;20.23;11.48;;;;;13.60;100991.00;;;;5108815;28;20671;-80
2021/11/25 10:17:45;;;;;;;16.27;10.73;;;;;13.60;100980.00;;;;5105226;28;20224;-79
2021/11/25 10:20:15;;;;;;;19.85;12.18;;;;;13.70;100991.00;;;;5099845;28;20221;-79
2021/11/25 10:23:15;;;;;;;19.45;11.15;;;;;13.60;100989.00;;;;5096354;28;20226;-79
2021/11/25 10:25:45;;;;;;;19.58;11.57;;;;;13.80;100985.00;;;;5098440;28;20229;-79
2021/11/25 10:28:21;;;;;;;20.50;12.52;;;;;13.80;100989.00;;;;5095875;28;20666;-81
2021/11/25 10:30:51;;;;;;;20.95;11.82;;;;;13.90;100990.00;;;;5094857;28;20225;-80
2021/11/25 10:33:24;;;;;;;20.33;12.65;;;;;13.90;100986.00;;;;5104447;28;20205;-80
2021/11/25 10:38:59;;;;;;;20.13;11.98;;;;;14.10;100974.00;;;;5070180;28;20227;-80
2021/11/25 10:41:29;;;;;;;19.80;11.50;;;;;14.20;100981.00;;;;5104592;28;20218;-80
2021/11/25 10:44:06;;;;;;;21.30;12.48;;;;;14.20;100974.00;;;;5092747;28;20201;-81
2021/11/25 10:46:43;;;;;;;17.25;11.43;;;;;14.30;100984.00;;;;5096744;28;20193;-81
2021/11/25 10:49:12;;;;;;;20.23;11.65;;;;;14.40;100987.00;;;;5100746;28;20194;-81
2021/11/25 10:51:41;;;;;;;20.63;11.52;;;;;14.40;100985.00;;;;5098796;28;20210;-80
2021/11/25 10:54:11;;;;;;;19.42;11.73;;;;;14.40;100983.00;;;;5100152;28;20193;-80
2021/11/25 10:56:42;;;;;;;20.60;12.20;;;;;14.50;100987.00;;;;5102937;28;20212;-81
2021/11/25 10:59:13;;;;;;;18.02;11.68;;;;;14.50;100985.00;;;;5101702;28;20703;-80
2021/11/25 11:01:42;;;;;;;19.33;11.68;;;;;14.60;100978.00;;;;5096792;28;20234;-81
2021/11/25 11:04:11;;;;;;;20.30;11.70;;;;;14.60;100985.00;;;;5089311;28;21003;-81
2021/11/25 11:06:41;;;;;;;19.80;12.25;;;;;14.70;100985.00;;;;5093702;28;20198;-80
2021/11/25 11:09:27;;;;;;;19.30;12.65;;;;;14.70;100993.00;;;;5090228;28;20204;-81
2021/11/25 11:12:23;;;;;;;21.75;11.82;;;;;14.70;100987.00;;;;5095862;28;20225;-80
2021/11/25 11:14:54;;;;;;;18.35;11.80;;;;;14.80;100993.00;;;;5090101;28;20191;-80
2021/11/25 11:17:27;;;;;;;20.60;11.45;;;;;14.80;100995.00;;;;5105179;28;20193;-81
2021/11/25 11:20:07;;;;;;;20.58;11.32;;;;;14.90;100994.00;;;;5103548;28;20740;-81
2021/11/25 11:22:35;;;;;;;20.45;10.60;;;;;15.00;100988.00;;;;5089667;28;20193;-80
2021/11/25 11:25:06;;;;;;;20.98;11.48;;;;;15.00;100984.00;;;;5093816;28;20198;-81
2021/11/25 11:27:33;;;;;;;17.55;11.02;;;;;15.10;100989.00;;;;5106747;28;20182;-81
2021/11/25 11:30:00;;;;;;;19.25;10.80;;;;;15.10;100980.00;;;;5088325;28;20217;-80
2021/11/25 11:32:28;;;;;;;19.40;11.60;;;;;15.10;100975.00;;;;5091120;28;20202;-81
2021/11/25 11:34:58;;;;;;;19.40;11.02;;;;;15.20;100984.00;;;;5092010;28;20206;-81
2021/11/25 11:37:25;;;;;;;18.33;10.57;;;;;15.20;100979.00;;;;5104539;28;20214;-81
2021/11/25 11:39:53;;;;;;;15.55;8.98;;;;;15.30;100976.00;;;;5105633;28;20197;-81
2021/11/25 11:42:25;;;;;;;19.25;10.02;;;;;15.30;100980.00;;;;5094035;28;20214;-81
2021/11/25 11:44:53;;;;;;;15.48;9.73;;;;;15.40;100982.00;;;;5099623;28;20190;-81
2021/11/25 11:47:23;;;;;;;18.73;10.93;;;;;15.40;100976.00;;;;5102090;28;20229;-81
2021/11/25 11:49:51;;;;;;;15.40;9.30;;;;;15.50;100975.00;;;;5104717;28;20206;-81
2021/11/25 11:52:23;;;;;;;15.52;9.20;;;;;15.50;100971.00;;;;5094302;28;20240;-81
2021/11/25 11:54:53;;;;;;;13.88;9.18;;;;;15.50;100973.00;;;;5099674;28;20224;-80
2021/11/25 11:57:40;;;;;;;19.42;10.52;;;;;15.50;100982.00;;;;5098253;28;20201;-80
2021/11/25 12:00:36;;;;;;;15.23;9.05;;;;;15.50;100985.00;;;;5098388;28;20243;-81
2021/11/25 12:03:04;;;;;;;16.08;9.50;;;;;15.60;100977.00;;;;5092837;28;21759;-80
2021/11/25 12:05:49;;;;;;;15.88;9.05;;;;;15.40;100976.00;;;;5100798;28;20832;-81
2021/11/25 12:08:38;;;;;;;18.30;10.55;;;;;15.50;100972.00;;;;5093888;28;20193;-81